地図

経路データ

SID SEASON NUMBER BASIN SUBBASIN NAME ISO_TIME NATURE LAT LON WMO_WIND WMO_PRES WMO_AGENCY TRACK_TYPE DIST2LAND LANDFALL IFLAG USA_AGENCY USA_ATCF_ID USA_LAT USA_LON USA_RECORD USA_STATUS USA_WIND USA_PRES USA_SSHS USA_R34_NE USA_R34_SE USA_R34_SW USA_R34_NW USA_R50_NE USA_R50_SE USA_R50_SW USA_R50_NW USA_R64_NE USA_R64_SE USA_R64_SW USA_R64_NW USA_POCI USA_ROCI USA_RMW USA_EYE TOKYO_LAT TOKYO_LON TOKYO_GRADE TOKYO_WIND TOKYO_PRES TOKYO_R50_DIR TOKYO_R50_LONG TOKYO_R50_SHORT TOKYO_R30_DIR TOKYO_R30_LONG TOKYO_R30_SHORT TOKYO_LAND CMA_LAT CMA_LON CMA_CAT CMA_WIND CMA_PRES HKO_LAT HKO_LON HKO_CAT HKO_WIND HKO_PRES NEWDELHI_LAT NEWDELHI_LON NEWDELHI_GRADE NEWDELHI_WIND NEWDELHI_PRES NEWDELHI_CI NEWDELHI_DP NEWDELHI_POCI REUNION_LAT REUNION_LON REUNION_TYPE REUNION_WIND REUNION_PRES REUNION_TNUM REUNION_CI REUNION_RMW REUNION_R34_NE REUNION_R34_SE REUNION_R34_SW REUNION_R34_NW REUNION_R50_NE REUNION_R50_SE REUNION_R50_SW REUNION_R50_NW REUNION_R64_NE REUNION_R64_SE REUNION_R64_SW REUNION_R64_NW BOM_LAT BOM_LON BOM_TYPE BOM_WIND BOM_PRES BOM_TNUM BOM_CI BOM_RMW BOM_R34_NE BOM_R34_SE BOM_R34_SW BOM_R34_NW BOM_R50_NE BOM_R50_SE BOM_R50_SW BOM_R50_NW BOM_R64_NE BOM_R64_SE BOM_R64_SW BOM_R64_NW BOM_ROCI BOM_POCI BOM_EYE BOM_POS_METHOD BOM_PRES_METHOD NADI_LAT NADI_LON NADI_CAT NADI_WIND NADI_PRES WELLINGTON_LAT WELLINGTON_LON WELLINGTON_WIND WELLINGTON_PRES DS824_LAT DS824_LON DS824_STAGE DS824_WIND DS824_PRES TD9636_LAT TD9636_LON TD9636_STAGE TD9636_WIND TD9636_PRES TD9635_LAT TD9635_LON TD9635_WIND TD9635_PRES TD9635_ROCI NEUMANN_LAT NEUMANN_LON NEUMANN_CLASS NEUMANN_WIND NEUMANN_PRES MLC_LAT MLC_LON MLC_CLASS MLC_WIND MLC_PRES USA_GUST BOM_GUST BOM_GUST_PER REUNION_GUST REUNION_GUST_PER USA_SEAHGT USA_SEARAD_NE USA_SEARAD_SE USA_SEARAD_SW USA_SEARAD_NW STORM_SPEED STORM_DIR
1909033S14140 1909 7 SP EA NOT_NAMED 1909-02-01 12:00:00 NR -14.4000 140.400 main 119 118 __________O___ -1 -14.4000 140.400 7 2 155
1909033S14140 1909 7 SP EA NOT_NAMED 1909-02-01 15:00:00 NR -14.5016 140.450 main 118 107 __________P___ -1 -14.5016 140.450 7 2 155
1909033S14140 1909 7 SP EA NOT_NAMED 1909-02-01 18:00:00 NR -14.6025 140.500 main 108 108 __________P___ -1 -14.6025 140.500 7 2 154
1909033S14140 1909 7 SP EA NOT_NAMED 1909-02-01 21:00:00 NR -14.7022 140.550 main 99 99 __________P___ -1 -14.7022 140.550 7 2 154
1909033S14140 1909 7 SP EA NOT_NAMED 1909-02-02 00:00:00 NR -14.8000 140.600 main 102 102 __________O___ -1 -14.8000 140.600 7 2 153
1909033S14140 1909 7 SP EA NOT_NAMED 1909-02-02 03:00:00 NR -14.8959 140.650 main 97 97 __________P___ -1 -14.8959 140.650 7 2 153
1909033S14140 1909 7 SP EA NOT_NAMED 1909-02-02 06:00:00 NR -14.9925 140.700 main 102 96 __________P___ -1 -14.9925 140.700 7 2 153
1909033S14140 1909 7 SP EA NOT_NAMED 1909-02-02 09:00:00 NR -15.0928 140.750 main 87 82 __________P___ -1 -15.0928 140.750 7 2 154
1909033S14140 1909 7 SP EA NOT_NAMED 1909-02-02 12:00:00 NR -15.2000 140.800 main 82 78 __________O___ -1 -15.2000 140.800 7 2 157
1909033S14140 1909 7 SP EA NOT_NAMED 1909-02-02 15:00:00 NR -15.3178 140.850 main 68 65 __________P___ -1 -15.3178 140.850 7 3 158
1909033S14140 1909 7 SP EA NOT_NAMED 1909-02-02 18:00:00 NR -15.4425 140.900 main 65 63 __________P___ -1 -15.4425 140.900 7 3 159
1909033S14140 1909 7 SP EA NOT_NAMED 1909-02-02 21:00:00 NR -15.5709 140.950 main 53 48 __________P___ -1 -15.5709 140.950 7 3 160
1909033S14140 1909 7 SP EA NOT_NAMED 1909-02-03 00:00:00 NR -15.7000 141.000 main 48 44 __________O___ -1 -15.7000 141.000 7 3 159
1909033S14140 1909 7 SP EA NOT_NAMED 1909-02-03 03:00:00 NR -15.8209 141.050 main 33 32 __________P___ -1 -15.8209 141.050 7 3 158
1909033S14140 1909 7 SP EA NOT_NAMED 1909-02-03 06:00:00 NR -15.9425 141.100 main 32 32 __________P___ -1 -15.9425 141.100 7 3 158
1909033S14140 1909 7 SP EA NOT_NAMED 1909-02-03 09:00:00 NR -16.0678 141.150 main 21 21 __________P___ -1 -16.0678 141.150 7 3 160
1909033S14140 1909 7 SP EA NOT_NAMED 1909-02-03 12:00:00 NR -16.2000 141.200 main 21 15 __________O___ -1 -16.2000 141.200 7 3 159
1909033S14140 1909 7 SP EA NOT_NAMED 1909-02-03 15:00:00 NR -16.3103 141.246 main 15 0 __________P___ -1 -16.3103 141.246 7 3 158
1909033S14140 1909 7 SP EA NOT_NAMED 1909-02-03 18:00:00 NR -16.4325 141.293 main 0 0 __________P___ -1 -16.4325 141.293 7 3 161
1909033S14140 1909 7 SP EA NOT_NAMED 1909-02-03 21:00:00 NR -16.5884 141.343 main 0 0 __________P___ -1 -16.5884 141.343 7 4 164
1909033S14140 1909 7 SP EA NOT_NAMED 1909-02-04 00:00:00 NR -16.8000 141.400 main 0 0 __________O___ -1 -16.8000 141.400 7 5 163
1909033S14140 1909 7 SP EA NOT_NAMED 1909-02-04 03:00:00 NR -17.0844 141.496 main 0 0 __________P___ -1 -17.0844 141.496 7 7 163
1909033S14140 1909 7 SP EA NOT_NAMED 1909-02-04 06:00:00 NR -17.4251 141.594 main 0 0 __________P___ -1 -17.4251 141.594 7 7 167
1909033S14140 1909 7 SP EA NOT_NAMED 1909-02-04 09:00:00 NR -17.8032 141.671 main 0 0 __________P___ -1 -17.8032 141.671 7 8 173
1909033S14140 1909 7 SP EA NOT_NAMED 1909-02-04 12:00:00 NR -18.2000 141.700 main 0 0 __________O___ -1 -18.2000 141.700 7 8 0
1909033S14140 1909 7 SP EA NOT_NAMED 1909-02-04 15:00:00 NR -18.6344 141.655 main 0 0 __________P___ -1 -18.6344 141.655 7 9 188
1909033S14140 1909 7 SP EA NOT_NAMED 1909-02-04 18:00:00 NR -19.0750 141.561 main 0 0 __________P___ -1 -19.0750 141.561 7 9 194
1909033S14140 1909 7 SP EA NOT_NAMED 1909-02-04 21:00:00 NR -19.4781 141.436 main 0 0 __________P___ -1 -19.4781 141.436 7 8 199
1909033S14140 1909 7 SP EA NOT_NAMED 1909-02-05 00:00:00 NR -19.8000 141.300 main 0 0 __________O___ -1 -19.8000 141.300 7 5 204
1909033S14140 1909 7 SP EA NOT_NAMED 1909-02-05 03:00:00 NR -19.9780 141.202 main 0 0 __________P___ -1 -19.9780 141.202 7 3 215
1909033S14140 1909 7 SP EA NOT_NAMED 1909-02-05 06:00:00 NR -20.0747 141.094 main 0 0 __________P___ -1 -20.0747 141.094 7 3 235
1909033S14140 1909 7 SP EA NOT_NAMED 1909-02-05 09:00:00 NR -20.1342 140.965 main 0 0 __________P___ -1 -20.1342 140.965 7 3 246
1909033S14140 1909 7 SP EA NOT_NAMED 1909-02-05 12:00:00 NR -20.2000 140.800 main 0 0 __________O___ -1 -20.2000 140.800 7 4 249
1909033S14140 1909 7 SP EA NOT_NAMED 1909-02-05 15:00:00 NR -20.2832 140.541 main 0 0 __________P___ -1 -20.2832 140.541 7 5 250
1909033S14140 1909 7 SP EA NOT_NAMED 1909-02-05 18:00:00 NR -20.3881 140.255 main 0 0 __________P___ -1 -20.3881 140.255 7 6 243
1909033S14140 1909 7 SP EA NOT_NAMED 1909-02-05 21:00:00 NR -20.5488 139.992 main 0 0 __________P___ -1 -20.5488 139.992 7 6 226
1909033S14140 1909 7 SP EA NOT_NAMED 1909-02-06 00:00:00 NR -20.8000 139.800 main 0 0 __________O___ -1 -20.8000 139.800 7 7 201
1909033S14140 1909 7 SP EA NOT_NAMED 1909-02-06 03:00:00 NR -21.1935 139.733 main 0 0 __________P___ -1 -21.1935 139.733 7 9 184
1909033S14140 1909 7 SP EA NOT_NAMED 1909-02-06 06:00:00 NR -21.6748 139.745 main 0 0 __________P___ -1 -21.6748 139.745 7 10 176
1909033S14140 1909 7 SP EA NOT_NAMED 1909-02-06 09:00:00 NR -22.1937 139.808 main 0 0 __________P___ -1 -22.1937 139.808 7 10 172
1909033S14140 1909 7 SP EA NOT_NAMED 1909-02-06 12:00:00 NR -22.7000 139.900 main 0 0 __________O___ -1 -22.7000 139.900 7 10 170
1909033S14140 1909 7 SP EA NOT_NAMED 1909-02-06 15:00:00 NR -23.1547 139.998 main 0 0 __________P___ -1 -23.1547 139.998 7 9 168
1909033S14140 1909 7 SP EA NOT_NAMED 1909-02-06 18:00:00 NR -23.5625 140.097 main 0 0 __________P___ -1 -23.5625 140.097 7 8 167
1909033S14140 1909 7 SP EA NOT_NAMED 1909-02-06 21:00:00 NR -23.9391 140.198 main 0 0 __________P___ -1 -23.9391 140.198 7 8 166
1909033S14140 1909 7 SP EA NOT_NAMED 1909-02-07 00:00:00 NR -24.3000 140.300 main 0 __________O___ -1 -24.3000 140.300 7 7 167

デジタル台風データ・検索

IBTrACS Databaseについて

本データベースは、米国NOAAが公開する1842年以降の世界の熱帯低気圧のベストトラックデータアーカイブInternational Best Track Archive for Climate Stewardship (IBTrACS)を、ウェブで閲覧しやすい形式に変換したものです。

最終更新日:2021-10-08